Terminal Aerodrome Forecast
Issued by NWS

Home | Current Version | Previous Version | Text Only | Print | Product List | Glossary On
Versions: 1 2 3 4 5 6 7 8 9 10 11 12 13 14
000
FTUS44 KBMX 181740
TAFTOI
TAF
KTOI 181740Z 1818/1918 00000KT P6SM VCSH SCT007 BKN024 OVC070
      TEMPO 1818/1822 3SM BR OVC007
     FM190200 00000KT 3SM BR OVC010
     FM190400 00000KT 1SM BR OVC007
     FM190600 00000KT 1/2SM FG OVC003
     FM191600 21004KT 2SM BR OVC003=

USA.gov is the U.S. government's official web portal to all federal, state and local government web resources and services.